createdAt,value
2022-12-20T00:00:09.076Z,5.13
2022-12-20T00:00:30.794Z,2.55
2022-12-20T00:00:52.728Z,5.05
2022-12-20T00:01:17.568Z,4.68
2022-12-20T00:01:39.349Z,3.83
2022-12-20T00:02:01.136Z,5.57
2022-12-20T00:02:22.938Z,4.93
2022-12-20T00:02:45.070Z,2.38
2022-12-20T00:03:06.896Z,2.08
2022-12-20T00:03:28.648Z,1.45
2022-12-20T00:03:52.757Z,1.63
2022-12-20T00:04:14.518Z,1.67
2022-12-20T00:04:36.385Z,5.57
2022-12-20T00:04:58.136Z,4.40
2022-12-20T00:05:20.287Z,6.80
2022-12-20T00:05:43.635Z,4.40
2022-12-20T00:06:06.157Z,4.32
2022-12-20T00:06:27.988Z,4.05
2022-12-20T00:06:49.949Z,1.85
2022-12-20T00:07:11.779Z,4.40
2022-12-20T00:07:33.501Z,2.42
2022-12-20T00:07:55.246Z,3.90
2022-12-20T00:08:16.962Z,5.60
2022-12-20T00:08:39.159Z,3.65
2022-12-20T00:09:03.509Z,3.65
2022-12-20T00:09:25.529Z,5.53
2022-12-20T00:09:47.235Z,5.82
2022-12-20T00:10:09.154Z,5.47
2022-12-20T00:10:30.883Z,7.03
2022-12-20T00:10:52.564Z,3.35
2022-12-20T00:11:14.675Z,2.88
2022-12-20T00:11:39.748Z,4.03
2022-12-20T00:12:01.526Z,4.95
2022-12-20T00:12:23.351Z,3.63
2022-12-20T00:12:45.059Z,4.80
2022-12-20T00:13:07.445Z,6.57
2022-12-20T00:13:29.373Z,6.20
2022-12-20T00:13:51.714Z,7.30
2022-12-20T00:14:13.417Z,4.22
2022-12-20T00:14:35.089Z,2.17
2022-12-20T00:14:56.772Z,1.27
2022-12-20T00:15:18.441Z,2.88
2022-12-20T00:15:40.249Z,4.10
2022-12-20T00:16:15.238Z,5.88
2022-12-20T00:16:37.493Z,5.78
2022-12-20T00:16:59.186Z,3.65
2022-12-20T00:17:21.878Z,4.82
2022-12-20T00:17:43.760Z,4.95
2022-12-20T00:18:05.597Z,5.78
2022-12-20T00:18:27.363Z,5.40
2022-12-20T00:18:52.955Z,5.55
2022-12-20T00:19:14.624Z,4.55
2022-12-20T00:19:36.633Z,4.70
2022-12-20T00:19:58.281Z,3.33
2022-12-20T00:20:19.983Z,2.60
2022-12-20T00:20:41.742Z,3.60
2022-12-20T00:21:06.474Z,2.50
2022-12-20T00:21:28.346Z,5.40
2022-12-20T00:21:50.031Z,3.55
2022-12-20T00:22:11.842Z,1.88
2022-12-20T00:22:33.545Z,1.67
2022-12-20T00:22:55.955Z,4.00
2022-12-20T00:23:17.642Z,4.85
2022-12-20T00:23:40.203Z,4.22
2022-12-20T00:24:02.160Z,3.97
2022-12-20T00:24:26.326Z,2.45
2022-12-20T00:24:48.364Z,3.55
2022-12-20T00:25:10.181Z,2.92
2022-12-20T00:25:31.878Z,1.15
2022-12-20T00:25:53.588Z,2.95
2022-12-20T00:26:20.721Z,5.22
2022-12-20T00:26:42.453Z,6.35
2022-12-20T00:27:05.338Z,4.20
2022-12-20T00:27:27.041Z,3.70
2022-12-20T00:27:49.470Z,2.88
2022-12-20T00:28:11.205Z,3.33
2022-12-20T00:28:34.577Z,4.07
2022-12-20T00:28:56.843Z,5.97
2022-12-20T00:29:18.595Z,6.32
2022-12-20T00:29:41.111Z,6.05
2022-12-20T00:30:03.173Z,6.35
2022-12-20T00:30:24.970Z,4.15
2022-12-20T00:30:46.720Z,3.65
2022-12-20T00:31:09.599Z,2.55
2022-12-20T00:31:33.266Z,3.00
2022-12-20T00:31:55.109Z,4.47
2022-12-20T00:32:16.913Z,5.60
2022-12-20T00:32:38.727Z,5.40
2022-12-20T00:33:00.369Z,8.40
2022-12-20T00:33:22.292Z,4.68
2022-12-20T00:33:47.585Z,5.25
2022-12-20T00:34:09.278Z,5.45
2022-12-20T00:34:30.929Z,6.28
2022-12-20T00:34:52.649Z,7.60
2022-12-20T00:35:14.474Z,4.68
2022-12-20T00:35:36.138Z,1.98
2022-12-20T00:36:00.187Z,2.75
2022-12-20T00:36:23.896Z,3.15
2022-12-20T00:36:45.639Z,1.63
2022-12-20T00:37:07.344Z,1.98
2022-12-20T00:37:29.266Z,3.50
2022-12-20T00:37:50.990Z,5.00
2022-12-20T00:38:12.844Z,6.82
2022-12-20T00:38:34.991Z,6.55
2022-12-20T00:38:58.072Z,4.65
2022-12-20T00:39:19.802Z,4.38
2022-12-20T00:39:41.516Z,5.60
2022-12-20T00:40:04.605Z,5.45
2022-12-20T00:40:26.413Z,3.83
2022-12-20T00:40:48.128Z,4.38
2022-12-20T00:41:12.565Z,4.40
2022-12-20T00:41:34.747Z,3.80
2022-12-20T00:41:56.527Z,3.88
2022-12-20T00:42:18.223Z,4.57
2022-12-20T00:42:39.898Z,4.78
2022-12-20T00:43:01.616Z,5.60
2022-12-20T00:43:23.352Z,6.63
2022-12-20T00:43:45.083Z,3.53
2022-12-20T00:44:06.792Z,4.03
2022-12-20T00:44:29.505Z,2.75
2022-12-20T00:44:51.210Z,3.53
2022-12-20T00:45:12.967Z,2.10
2022-12-20T00:45:34.716Z,2.35
2022-12-20T00:45:56.923Z,2.30
2022-12-20T00:46:23.345Z,1.50
2022-12-20T00:46:45.153Z,2.83
2022-12-20T00:47:06.934Z,3.03
2022-12-20T00:47:28.693Z,4.38
2022-12-20T00:47:50.602Z,4.68
2022-12-20T00:48:12.355Z,4.13
2022-12-20T00:48:34.668Z,5.75
2022-12-20T00:48:56.926Z,8.27
2022-12-20T00:49:18.693Z,3.75
2022-12-20T00:49:40.873Z,4.57
2022-12-20T00:50:02.668Z,3.83
2022-12-20T00:50:24.439Z,5.10
2022-12-20T00:50:46.868Z,5.88
2022-12-20T00:51:14.400Z,4.60
2022-12-20T00:51:36.305Z,3.67
2022-12-20T00:51:58.097Z,2.42
2022-12-20T00:52:19.796Z,1.20
2022-12-20T00:52:41.523Z,1.55
2022-12-20T00:53:03.255Z,3.00
2022-12-20T00:53:26.630Z,3.00
2022-12-20T00:53:48.572Z,3.58
2022-12-20T00:54:10.309Z,4.05
2022-12-20T00:54:33.467Z,1.60
2022-12-20T00:54:55.124Z,4.00
2022-12-20T00:55:16.859Z,3.38
2022-12-20T00:55:46.300Z,4.55
2022-12-20T00:56:08.974Z,4.88
2022-12-20T00:56:31.208Z,3.10
2022-12-20T00:56:52.860Z,4.47
2022-12-20T00:57:14.579Z,4.53
2022-12-20T00:57:36.312Z,3.63
2022-12-20T00:57:57.996Z,4.68
2022-12-20T00:58:20.374Z,3.30
2022-12-20T00:58:43.911Z,1.73
2022-12-20T00:59:05.737Z,1.27
2022-12-20T00:59:27.739Z,2.13
2022-12-20T00:59:49.488Z,2.08
2022-12-20T01:00:11.788Z,3.30
2022-12-20T01:00:33.650Z,6.40
2022-12-20T01:00:56.726Z,5.50
2022-12-20T01:01:25.364Z,4.07
2022-12-20T01:01:48.121Z,3.28
2022-12-20T01:02:10.162Z,5.18
2022-12-20T01:02:32.135Z,4.97
2022-12-20T01:02:54.232Z,5.07
2022-12-20T01:03:16.275Z,3.40
2022-12-20T01:03:38.340Z,4.47
2022-12-20T01:04:01.036Z,3.72
2022-12-20T01:04:22.782Z,6.30
2022-12-20T01:04:44.503Z,5.38
2022-12-20T01:05:06.508Z,3.80
2022-12-20T01:05:28.687Z,3.38
2022-12-20T01:05:53.225Z,1.70
2022-12-20T01:06:15.666Z,1.50
2022-12-20T01:06:37.574Z,2.40
2022-12-20T01:06:59.568Z,3.65
2022-12-20T01:07:23.443Z,5.10
2022-12-20T01:07:45.144Z,2.60
2022-12-20T01:08:07.207Z,2.47
2022-12-20T01:08:30.663Z,4.10
2022-12-20T01:08:53.931Z,3.47
2022-12-20T01:09:15.730Z,3.05
2022-12-20T01:09:37.499Z,4.18
2022-12-20T01:09:59.266Z,2.90
2022-12-20T01:10:21.073Z,3.67
2022-12-20T01:10:42.828Z,4.05
2022-12-20T01:11:25.633Z,0.98
2022-12-20T01:11:47.357Z,1.58
2022-12-20T01:12:09.092Z,3.67
2022-12-20T01:12:30.865Z,4.53
2022-12-20T01:12:52.812Z,4.72
2022-12-20T01:13:14.590Z,5.13
2022-12-20T01:13:38.461Z,3.63
2022-12-20T01:14:04.450Z,2.75
2022-12-20T01:14:26.307Z,1.90
2022-12-20T01:14:47.989Z,1.98
2022-12-20T01:15:10.729Z,4.28
2022-12-20T01:15:33.615Z,3.53
2022-12-20T01:15:55.619Z,2.08
2022-12-20T01:16:24.168Z,2.25
2022-12-20T01:16:47.670Z,2.92
2022-12-20T01:17:09.543Z,1.20
2022-12-20T01:17:31.232Z,0.90
2022-12-20T01:17:53.117Z,1.17
2022-12-20T01:18:14.871Z,1.85
2022-12-20T01:18:36.673Z,3.35
2022-12-20T01:18:58.610Z,3.92
2022-12-20T01:19:20.414Z,3.45
2022-12-20T01:19:42.299Z,3.10
2022-12-20T01:20:05.166Z,1.77
2022-12-20T01:20:26.961Z,1.67
2022-12-20T01:20:49.177Z,2.28
2022-12-20T01:21:13.980Z,2.05
2022-12-20T01:21:35.840Z,3.17
2022-12-20T01:21:57.612Z,1.20
2022-12-20T01:22:19.285Z,3.33
2022-12-20T01:22:47.326Z,2.22
2022-12-20T01:23:09.470Z,2.25
2022-12-20T01:23:31.563Z,3.03
2022-12-20T01:23:53.891Z,2.72
2022-12-20T01:24:20.802Z,3.30
2022-12-20T01:24:42.622Z,4.28
2022-12-20T01:25:04.600Z,6.88
2022-12-20T01:25:26.321Z,4.00
2022-12-20T01:25:51.263Z,3.40
2022-12-20T01:26:15.959Z,2.63
2022-12-20T01:26:37.876Z,1.55
2022-12-20T01:26:59.560Z,1.73
2022-12-20T01:27:21.501Z,1.10
2022-12-20T01:27:43.343Z,1.65
2022-12-20T01:28:05.111Z,1.05
2022-12-20T01:28:27.727Z,2.15
2022-12-20T01:28:52.430Z,2.47
2022-12-20T01:29:14.691Z,5.93
2022-12-20T01:29:36.514Z,4.57
2022-12-20T01:29:58.197Z,3.83
2022-12-20T01:30:19.948Z,2.45
2022-12-20T01:30:41.768Z,2.28
2022-12-20T01:31:10.220Z,2.08
2022-12-20T01:31:32.422Z,1.95
2022-12-20T01:31:54.812Z,2.55
2022-12-20T01:32:16.570Z,3.22
2022-12-20T01:32:38.477Z,1.83
2022-12-20T01:33:00.235Z,2.92
2022-12-20T01:33:23.131Z,2.92
2022-12-20T01:33:45.978Z,2.47
2022-12-20T01:34:07.919Z,5.45
2022-12-20T01:34:29.612Z,4.47
2022-12-20T01:34:51.356Z,1.77
2022-12-20T01:35:13.169Z,0.60
2022-12-20T01:35:35.002Z,1.10
2022-12-20T01:35:58.555Z,1.63
2022-12-20T01:36:25.206Z,2.28
2022-12-20T01:36:47.169Z,3.30
2022-12-20T01:37:08.898Z,3.17
2022-12-20T01:37:31.688Z,1.42
2022-12-20T01:37:53.380Z,1.00
2022-12-20T01:38:15.115Z,0.70
2022-12-20T01:38:37.074Z,1.50
2022-12-20T01:39:09.448Z,2.10
2022-12-20T01:39:31.153Z,2.83
2022-12-20T01:39:52.879Z,3.05
2022-12-20T01:40:14.686Z,6.03
2022-12-20T01:40:39.345Z,3.05
2022-12-20T01:41:01.660Z,1.90
2022-12-20T01:41:23.891Z,1.42
2022-12-20T01:41:46.276Z,2.10
2022-12-20T01:42:14.231Z,0.60
2022-12-20T01:42:36.358Z,2.40
2022-12-20T01:42:58.113Z,2.60
2022-12-20T01:43:21.420Z,1.80
2022-12-20T01:43:45.996Z,2.90
2022-12-20T01:44:27.720Z,3.22
2022-12-20T01:44:54.481Z,1.55
2022-12-20T01:45:27.300Z,2.22
2022-12-20T01:45:49.659Z,3.03
2022-12-20T01:46:11.660Z,1.98
2022-12-20T01:46:36.444Z,2.47
2022-12-20T01:46:58.289Z,1.50
2022-12-20T01:47:20.168Z,1.70
2022-12-20T01:47:41.927Z,3.33
2022-12-20T01:48:03.724Z,2.35
2022-12-20T01:48:26.859Z,1.45
2022-12-20T01:49:01.588Z,2.22
2022-12-20T01:49:31.299Z,3.60
2022-12-20T01:49:55.887Z,1.25
2022-12-20T01:50:17.669Z,1.80
2022-12-20T01:50:39.405Z,2.53
2022-12-20T01:51:01.187Z,1.17
2022-12-20T01:51:24.496Z,1.63
2022-12-20T01:51:57.839Z,3.50
2022-12-20T01:52:28.392Z,1.55
2022-12-20T01:52:50.186Z,3.03
2022-12-20T01:53:12.160Z,2.55
2022-12-20T01:53:33.949Z,0.75
2022-12-20T01:54:04.973Z,1.20
2022-12-20T01:54:33.766Z,3.13
2022-12-20T01:55:03.981Z,4.20
2022-12-20T01:55:27.506Z,1.35
2022-12-20T01:55:49.663Z,2.60
2022-12-20T01:56:11.525Z,1.10
2022-12-20T01:56:33.767Z,2.03
2022-12-20T01:57:02.809Z,4.75
2022-12-20T01:57:36.175Z,4.10
2022-12-20T01:58:07.263Z,3.38
2022-12-20T01:58:29.053Z,4.32
2022-12-20T01:58:53.209Z,4.85
2022-12-20T01:59:15.287Z,3.13
2022-12-20T01:59:40.637Z,2.08
2022-12-20T02:00:04.262Z,1.70
2022-12-20T02:00:26.234Z,2.65
2022-12-20T02:00:49.120Z,3.67
2022-12-20T02:01:10.971Z,3.40
2022-12-20T02:01:33.776Z,1.45
2022-12-20T02:01:59.373Z,3.03
2022-12-20T02:02:21.512Z,3.50
2022-12-20T02:02:46.671Z,2.45
2022-12-20T02:03:11.820Z,3.60
2022-12-20T02:03:33.910Z,4.53
2022-12-20T02:03:56.602Z,3.28
2022-12-20T02:04:18.359Z,4.57
2022-12-20T02:04:40.479Z,2.92
2022-12-20T02:05:02.547Z,5.55
2022-12-20T02:05:24.479Z,3.03
2022-12-20T02:05:46.916Z,2.33
2022-12-20T02:06:18.225Z,2.47
2022-12-20T02:06:40.039Z,1.23
2022-12-20T02:07:02.686Z,2.45
2022-12-20T02:07:28.383Z,1.42
2022-12-20T02:07:54.265Z,2.83
2022-12-20T02:08:19.443Z,4.72
2022-12-20T02:08:41.344Z,6.35
2022-12-20T02:09:04.962Z,1.67
2022-12-20T02:09:27.138Z,1.30
2022-12-20T02:09:49.751Z,2.22
2022-12-20T02:10:12.727Z,2.38
2022-12-20T02:11:02.688Z,2.55
2022-12-20T02:11:45.566Z,2.83
2022-12-20T02:12:20.773Z,2.67
2022-12-20T02:12:44.347Z,1.00
2022-12-20T02:13:24.737Z,2.28
2022-12-20T02:14:11.411Z,2.45
2022-12-20T02:14:51.253Z,1.35
2022-12-20T02:15:51.310Z,2.83
2022-12-20T02:16:21.823Z,1.90
2022-12-20T02:17:02.036Z,3.17
2022-12-20T02:17:31.723Z,5.03
2022-12-20T02:18:11.896Z,2.30
2022-12-20T02:18:36.484Z,2.95
2022-12-20T02:19:01.064Z,1.60
2022-12-20T02:19:31.807Z,2.85
2022-12-20T02:20:21.212Z,4.15
2022-12-20T02:20:58.329Z,2.60
2022-12-20T02:21:23.517Z,3.38
2022-12-20T02:22:37.328Z,3.63
2022-12-20T02:23:33.117Z,3.17
2022-12-20T02:24:03.748Z,1.73
2022-12-20T02:25:02.702Z,3.00
2022-12-20T02:26:04.707Z,3.28
2022-12-20T02:26:34.928Z,4.32
2022-12-20T02:27:17.228Z,1.60
2022-12-20T02:27:54.063Z,1.70
2022-12-20T02:28:53.175Z,2.42
2022-12-20T02:29:51.779Z,3.50
2022-12-20T02:30:21.763Z,0.98
2022-12-20T02:30:47.331Z,2.67
2022-12-20T02:31:13.754Z,3.08
2022-12-20T02:31:46.392Z,2.38
2022-12-20T02:32:17.178Z,1.38
2022-12-20T02:33:02.258Z,2.20
2022-12-20T02:33:26.827Z,1.50
2022-12-20T02:33:49.553Z,0.85
2022-12-20T02:34:12.707Z,1.58
2022-12-20T02:34:37.502Z,2.08
2022-12-20T02:34:59.777Z,2.97
2022-12-20T02:35:25.894Z,2.03
2022-12-20T02:35:47.595Z,2.58
2022-12-20T02:36:09.652Z,1.60
2022-12-20T02:36:31.416Z,1.30
2022-12-20T02:36:53.654Z,0.93
2022-12-20T02:37:15.404Z,2.50
2022-12-20T02:37:37.121Z,3.13
2022-12-20T02:38:01.451Z,2.25
2022-12-20T02:38:29.301Z,1.92
2022-12-20T02:38:51.515Z,0.90
2022-12-20T02:39:17.795Z,1.90
2022-12-20T02:39:41.296Z,3.63
2022-12-20T02:40:05.186Z,1.85
2022-12-20T02:40:41.318Z,2.05
2022-12-20T02:41:08.203Z,2.38
2022-12-20T02:41:36.109Z,1.27
2022-12-20T02:42:05.862Z,2.65
2022-12-20T02:42:29.390Z,1.80
2022-12-20T02:42:56.106Z,2.00
2022-12-20T02:43:38.990Z,3.13
2022-12-20T02:44:24.183Z,1.15
2022-12-20T02:45:12.965Z,2.42
2022-12-20T02:45:37.427Z,0.15
2022-12-20T02:46:00.451Z,0.65
2022-12-20T02:46:24.221Z,2.10
2022-12-20T02:46:47.487Z,1.50
2022-12-20T02:47:14.884Z,2.60
2022-12-20T02:47:42.639Z,1.60
2022-12-20T02:48:09.884Z,1.13
2022-12-20T02:48:34.272Z,1.08
2022-12-20T02:49:01.860Z,1.10
2022-12-20T02:49:32.606Z,2.58
2022-12-20T02:49:55.815Z,4.15
2022-12-20T02:50:26.550Z,2.95
2022-12-20T02:50:51.586Z,4.32
2022-12-20T02:51:15.428Z,2.72
2022-12-20T02:51:38.320Z,3.33
2022-12-20T02:52:03.577Z,2.30
2022-12-20T02:52:30.948Z,2.15
2022-12-20T02:52:53.322Z,2.05
2022-12-20T02:53:16.412Z,4.10
2022-12-20T02:53:39.225Z,4.63
2022-12-20T02:54:01.647Z,2.72
2022-12-20T02:54:24.206Z,3.05
2022-12-20T02:54:46.456Z,2.35
2022-12-20T02:55:08.745Z,4.43
2022-12-20T02:55:59.408Z,5.40
2022-12-20T02:56:42.722Z,3.13
2022-12-20T02:57:21.446Z,2.40
2022-12-20T02:57:48.634Z,3.33
2022-12-20T02:58:34.235Z,2.50
2022-12-20T02:59:02.685Z,1.90
2022-12-20T02:59:46.508Z,1.92
2022-12-20T03:00:15.013Z,2.50
2022-12-20T03:00:42.897Z,2.88
2022-12-20T03:01:13.859Z,2.50
2022-12-20T03:01:40.575Z,2.58
2022-12-20T03:02:03.474Z,3.33
2022-12-20T03:02:26.614Z,2.38
2022-12-20T03:03:08.754Z,1.10
2022-12-20T03:03:35.747Z,2.63
2022-12-20T03:03:58.978Z,1.73
2022-12-20T03:04:25.691Z,3.13
2022-12-20T03:04:49.560Z,2.33
2022-12-20T03:05:12.016Z,4.10
2022-12-20T03:05:37.653Z,2.88
2022-12-20T03:05:59.873Z,1.85
2022-12-20T03:06:21.970Z,2.35
2022-12-20T03:07:03.732Z,1.90
2022-12-20T03:07:28.181Z,3.85
2022-12-20T03:07:49.987Z,3.85
2022-12-20T03:08:11.730Z,2.40
2022-12-20T03:08:33.509Z,2.22
2022-12-20T03:08:55.240Z,2.25
2022-12-20T03:09:17.158Z,2.65
2022-12-20T03:09:42.566Z,1.33
2022-12-20T03:10:04.483Z,1.63
2022-12-20T03:10:26.738Z,2.65
2022-12-20T03:10:49.217Z,4.25
2022-12-20T03:11:10.965Z,3.67
2022-12-20T03:11:33.831Z,1.83
2022-12-20T03:11:55.633Z,2.35
2022-12-20T03:12:17.576Z,1.30
2022-12-20T03:12:39.374Z,0.32
2022-12-20T03:13:01.114Z,2.80
2022-12-20T03:13:24.460Z,2.90
2022-12-20T03:13:46.196Z,3.90
2022-12-20T03:14:07.984Z,5.63
2022-12-20T03:14:29.897Z,4.65
2022-12-20T03:14:51.572Z,3.22
2022-12-20T03:15:13.786Z,2.38
2022-12-20T03:15:35.724Z,2.92
2022-12-20T03:15:57.514Z,1.05
2022-12-20T03:16:19.322Z,0.88
2022-12-20T03:16:41.205Z,3.45
2022-12-20T03:17:03.532Z,4.28
2022-12-20T03:17:25.312Z,2.03
2022-12-20T03:17:47.572Z,1.63
2022-12-20T03:18:10.979Z,1.85
2022-12-20T03:18:33.044Z,2.35
2022-12-20T03:18:54.774Z,1.27
2022-12-20T03:19:16.687Z,1.45
2022-12-20T03:19:38.596Z,2.65
2022-12-20T03:20:00.391Z,1.88
2022-12-20T03:20:22.276Z,2.25
2022-12-20T03:20:45.026Z,3.03
2022-12-20T03:21:06.956Z,2.33
2022-12-20T03:21:28.750Z,1.95
2022-12-20T03:21:50.786Z,1.35
2022-12-20T03:22:12.516Z,1.48
2022-12-20T03:22:35.031Z,1.77
2022-12-20T03:22:56.857Z,4.32
2022-12-20T03:23:18.615Z,4.30
2022-12-20T03:23:40.371Z,1.35
2022-12-20T03:24:02.157Z,1.05
2022-12-20T03:24:23.926Z,3.05
2022-12-20T03:24:45.611Z,3.60
2022-12-20T03:25:07.663Z,4.60
2022-12-20T03:25:29.719Z,3.03
2022-12-20T03:25:51.586Z,1.75
2022-12-20T03:26:13.348Z,3.10
2022-12-20T03:26:35.107Z,3.55
2022-12-20T03:26:56.884Z,2.17
2022-12-20T03:27:18.730Z,1.23
2022-12-20T03:27:40.444Z,2.45
2022-12-20T03:28:04.985Z,5.82
2022-12-20T03:28:27.163Z,4.50
2022-12-20T03:28:49.004Z,2.50
2022-12-20T03:29:10.809Z,1.45
2022-12-20T03:29:32.614Z,2.15
2022-12-20T03:29:54.842Z,2.05
2022-12-20T03:30:16.705Z,1.67
2022-12-20T03:30:38.505Z,1.77
2022-12-20T03:31:00.373Z,3.38
2022-12-20T03:31:22.287Z,3.40
2022-12-20T03:31:44.070Z,2.20
2022-12-20T03:32:05.908Z,1.27
2022-12-20T03:32:30.841Z,4.10
2022-12-20T03:32:52.903Z,5.47
2022-12-20T03:33:15.533Z,3.03
2022-12-20T03:33:37.313Z,2.22
2022-12-20T03:33:59.141Z,1.30
2022-12-20T03:34:20.927Z,2.20
2022-12-20T03:34:42.590Z,2.15
2022-12-20T03:35:05.168Z,1.40
2022-12-20T03:35:26.879Z,1.88
2022-12-20T03:35:48.536Z,3.38
2022-12-20T03:36:10.318Z,2.10
2022-12-20T03:36:32.131Z,0.98
2022-12-20T03:36:53.857Z,2.10
2022-12-20T03:37:16.437Z,3.42
2022-12-20T03:37:38.244Z,4.55
2022-12-20T03:38:00.076Z,4.53
2022-12-20T03:38:25.322Z,2.58
2022-12-20T03:38:47.322Z,2.75
2022-12-20T03:39:11.862Z,3.17
2022-12-20T03:39:33.565Z,2.00
2022-12-20T03:39:57.973Z,2.03
2022-12-20T03:40:19.780Z,3.58
2022-12-20T03:40:41.487Z,2.85
2022-12-20T03:41:03.155Z,2.15
2022-12-20T03:41:25.926Z,1.92
2022-12-20T03:41:47.856Z,1.58
2022-12-20T03:42:09.802Z,2.70
2022-12-20T03:42:31.713Z,3.78
2022-12-20T03:42:53.412Z,2.28
2022-12-20T03:43:15.163Z,2.47
2022-12-20T03:43:36.945Z,2.00
2022-12-20T03:43:58.833Z,1.67
2022-12-20T03:44:20.642Z,0.93
2022-12-20T03:44:42.723Z,2.30
2022-12-20T03:45:05.641Z,2.22
2022-12-20T03:45:27.445Z,1.52
2022-12-20T03:45:50.512Z,1.92
2022-12-20T03:46:12.310Z,5.15
2022-12-20T03:46:34.193Z,3.03
2022-12-20T03:46:56.025Z,4.00
2022-12-20T03:47:17.825Z,2.75
2022-12-20T03:47:39.649Z,1.58
2022-12-20T03:48:06.300Z,2.65
2022-12-20T03:48:28.007Z,2.17
2022-12-20T03:48:49.734Z,2.60
2022-12-20T03:49:13.466Z,1.80
2022-12-20T03:49:36.193Z,3.58
2022-12-20T03:49:57.996Z,2.55
2022-12-20T03:50:19.878Z,2.42
2022-12-20T03:50:41.884Z,1.95
2022-12-20T03:51:04.281Z,1.50
2022-12-20T03:51:25.994Z,3.28
2022-12-20T03:51:47.777Z,2.30
2022-12-20T03:52:12.337Z,2.38
2022-12-20T03:52:35.271Z,3.00
2022-12-20T03:52:57.331Z,2.33
2022-12-20T03:53:19.284Z,2.70
2022-12-20T03:53:44.101Z,2.55
2022-12-20T03:54:06.143Z,2.20
2022-12-20T03:54:27.958Z,1.25
2022-12-20T03:54:49.739Z,2.00
2022-12-20T03:55:12.958Z,2.28
2022-12-20T03:55:34.807Z,2.60
2022-12-20T03:55:56.841Z,3.33
2022-12-20T03:56:19.300Z,1.90
2022-12-20T03:56:41.084Z,3.67
2022-12-20T03:57:02.853Z,2.60
2022-12-20T03:57:24.652Z,1.95
2022-12-20T03:57:46.323Z,2.85
2022-12-20T03:58:08.022Z,1.90
2022-12-20T03:58:29.747Z,2.55
2022-12-20T03:58:51.808Z,4.13
2022-12-20T03:59:13.523Z,3.33
2022-12-20T03:59:35.666Z,2.58
2022-12-20T03:59:57.449Z,1.85
2022-12-20T04:00:20.605Z,1.20
2022-12-20T04:00:42.495Z,1.48
2022-12-20T04:01:19.963Z,3.00
2022-12-20T04:01:42.007Z,3.33
2022-12-20T04:02:04.101Z,1.60
2022-12-20T04:02:26.587Z,1.30
2022-12-20T04:02:48.677Z,1.20
2022-12-20T04:03:11.057Z,0.70
2022-12-20T04:03:32.917Z,2.65
2022-12-20T04:03:56.338Z,3.33
2022-12-20T04:04:18.081Z,2.42
2022-12-20T04:04:39.808Z,1.02
2022-12-20T04:05:01.553Z,1.75
2022-12-20T04:05:23.583Z,3.63
2022-12-20T04:05:45.645Z,1.45
2022-12-20T04:06:07.475Z,1.20
2022-12-20T04:06:29.783Z,2.00
2022-12-20T04:06:51.793Z,1.67
2022-12-20T04:07:13.838Z,0.73
2022-12-20T04:07:35.622Z,3.00
2022-12-20T04:07:57.299Z,4.07
2022-12-20T04:08:19.016Z,3.33
2022-12-20T04:08:40.737Z,2.78
2022-12-20T04:09:02.698Z,1.83
2022-12-20T04:09:26.392Z,1.92
2022-12-20T04:09:48.134Z,1.38
2022-12-20T04:10:10.115Z,3.00
2022-12-20T04:10:31.855Z,2.33
2022-12-20T04:11:12.405Z,1.65
2022-12-20T04:11:34.183Z,3.58
2022-12-20T04:11:56.093Z,2.92
2022-12-20T04:12:17.948Z,2.03
2022-12-20T04:12:39.660Z,1.80
2022-12-20T04:13:01.369Z,2.50
2022-12-20T04:13:23.115Z,1.77
2022-12-20T04:13:51.399Z,1.95
2022-12-20T04:14:13.123Z,3.58
2022-12-20T04:14:35.868Z,4.63
2022-12-20T04:14:57.627Z,1.77
2022-12-20T04:15:19.408Z,3.22
2022-12-20T04:15:41.117Z,4.93
2022-12-20T04:16:02.910Z,2.45
2022-12-20T04:16:27.441Z,1.20
2022-12-20T04:16:49.637Z,3.33
2022-12-20T04:17:11.448Z,1.90
2022-12-20T04:17:33.168Z,2.92
2022-12-20T04:17:54.886Z,2.72
2022-12-20T04:18:16.759Z,2.72
2022-12-20T04:18:38.649Z,3.88
2022-12-20T04:19:00.796Z,2.45
2022-12-20T04:19:22.531Z,2.33
2022-12-20T04:19:44.234Z,2.42
2022-12-20T04:20:18.968Z,3.75
2022-12-20T04:20:40.947Z,2.90
2022-12-20T04:21:03.598Z,3.50
2022-12-20T04:21:30.704Z,4.68
2022-12-20T04:21:52.641Z,0.70
2022-12-20T04:22:14.400Z,1.88
2022-12-20T04:22:36.108Z,3.15
2022-12-20T04:22:57.787Z,1.70
2022-12-20T04:23:19.461Z,0.93
2022-12-20T04:23:43.069Z,2.08
2022-12-20T04:24:05.556Z,3.15
2022-12-20T04:24:27.341Z,5.07
2022-12-20T04:24:49.130Z,3.20
2022-12-20T04:25:10.875Z,3.63
2022-12-20T04:25:32.544Z,2.40
2022-12-20T04:25:54.355Z,2.72
2022-12-20T04:26:16.046Z,4.13
2022-12-20T04:26:38.052Z,3.22
2022-12-20T04:26:59.720Z,3.42
2022-12-20T04:27:21.395Z,4.72
2022-12-20T04:27:43.134Z,1.73
2022-12-20T04:28:04.887Z,2.00
2022-12-20T04:28:26.609Z,4.45
2022-12-20T04:28:48.432Z,4.35
2022-12-20T04:29:10.139Z,4.93
2022-12-20T04:29:32.040Z,3.97
2022-12-20T04:29:53.797Z,2.05
2022-12-20T04:30:15.605Z,1.80
2022-12-20T04:30:37.311Z,1.35
2022-12-20T04:30:59.579Z,2.05
2022-12-20T04:31:24.236Z,2.40
2022-12-20T04:31:46.448Z,1.63
2022-12-20T04:32:08.160Z,1.25
2022-12-20T04:32:29.928Z,3.28
2022-12-20T04:32:54.601Z,4.70
2022-12-20T04:33:16.334Z,2.42
2022-12-20T04:33:38.488Z,1.45
2022-12-20T04:34:00.198Z,2.67
2022-12-20T04:34:21.883Z,2.65
2022-12-20T04:34:43.578Z,2.70
2022-12-20T04:35:05.715Z,2.55
2022-12-20T04:35:27.719Z,2.00
2022-12-20T04:35:49.462Z,1.92
2022-12-20T04:36:11.266Z,4.18
2022-12-20T04:36:33.002Z,4.65
2022-12-20T04:36:54.701Z,4.35
2022-12-20T04:37:16.428Z,2.78
2022-12-20T04:37:38.287Z,2.88
2022-12-20T04:38:00.010Z,1.92
2022-12-20T04:38:22.465Z,0.73
2022-12-20T04:38:44.186Z,3.92
2022-12-20T04:39:05.954Z,3.65
2022-12-20T04:39:27.753Z,4.13
2022-12-20T04:39:49.504Z,6.75
2022-12-20T04:40:11.592Z,7.70
2022-12-20T04:40:33.380Z,4.53
2022-12-20T04:40:56.278Z,7.70
2022-12-20T04:41:24.211Z,4.30
2022-12-20T04:41:45.984Z,4.78
2022-12-20T04:42:07.638Z,6.80
2022-12-20T04:42:29.385Z,5.90
2022-12-20T04:42:51.185Z,4.07
2022-12-20T04:43:12.915Z,1.02
2022-12-20T04:43:34.620Z,1.25
2022-12-20T04:43:58.103Z,1.40
2022-12-20T04:44:19.767Z,1.92
2022-12-20T04:44:41.455Z,3.17
2022-12-20T04:45:04.213Z,3.67
2022-12-20T04:45:25.991Z,3.38
2022-12-20T04:45:49.696Z,6.60
2022-12-20T04:46:11.409Z,9.68
2022-12-20T04:46:33.335Z,5.65
2022-12-20T04:46:55.160Z,5.60
2022-12-20T04:47:16.886Z,4.88
2022-12-20T04:47:38.563Z,10.45
2022-12-20T04:48:14.731Z,18.30
2022-12-20T04:48:59.281Z,8.00
2022-12-20T04:49:21.575Z,8.23
2022-12-20T04:49:43.262Z,4.30
2022-12-20T04:50:06.754Z,6.28
2022-12-20T04:50:28.533Z,2.83
2022-12-20T04:50:51.073Z,4.07
2022-12-20T04:51:12.970Z,5.47
2022-12-20T04:51:34.708Z,4.07
2022-12-20T04:52:16.339Z,2.97
2022-12-20T04:52:56.574Z,5.95
2022-12-20T04:53:36.855Z,2.92
2022-12-20T04:53:58.621Z,2.08
2022-12-20T04:54:20.287Z,5.07
2022-12-20T04:54:41.972Z,5.85
2022-12-20T04:55:03.832Z,1.55
2022-12-20T04:55:25.577Z,0.80
2022-12-20T04:55:47.351Z,1.65
2022-12-20T04:56:09.453Z,1.30
2022-12-20T04:56:31.157Z,4.25
2022-12-20T04:56:52.849Z,4.57
2022-12-20T04:57:14.547Z,5.10
2022-12-20T04:57:36.248Z,3.00
2022-12-20T04:58:03.625Z,3.65
2022-12-20T04:58:29.704Z,3.78
2022-12-20T04:58:53.205Z,10.27
2022-12-20T04:59:14.904Z,9.27
2022-12-20T04:59:36.635Z,8.32
2022-12-20T04:59:58.297Z,13.55
2022-12-20T05:00:20.974Z,11.77
2022-12-20T05:00:42.780Z,7.38
2022-12-20T05:01:04.555Z,7.32
2022-12-20T05:01:26.665Z,17.05
2022-12-20T05:01:48.566Z,20.25
2022-12-20T05:02:10.428Z,5.88
2022-12-20T05:02:32.347Z,15.95
2022-12-20T05:02:54.293Z,15.43
2022-12-20T05:03:16.233Z,6.57
2022-12-20T05:03:38.764Z,5.97
2022-12-20T05:04:00.544Z,14.13
2022-12-20T05:04:22.545Z,9.57
2022-12-20T05:04:44.254Z,9.68
2022-12-20T05:05:06.203Z,6.10
2022-12-20T05:05:28.049Z,4.88
2022-12-20T05:05:49.775Z,3.75
2022-12-20T05:06:11.588Z,4.28
2022-12-20T05:06:33.359Z,3.38
2022-12-20T05:06:55.066Z,4.80
2022-12-20T05:07:16.959Z,4.93
2022-12-20T05:07:38.734Z,7.20
2022-12-20T05:08:00.476Z,4.28
2022-12-20T05:08:23.317Z,6.07
2022-12-20T05:08:45.096Z,4.40
2022-12-20T05:09:06.848Z,4.07
2022-12-20T05:09:29.293Z,3.25
2022-12-20T05:09:51.049Z,1.77
2022-12-20T05:10:12.960Z,4.47
2022-12-20T05:10:34.749Z,4.13
2022-12-20T05:10:56.499Z,6.38
2022-12-20T05:11:18.504Z,4.18
2022-12-20T05:11:40.242Z,2.03
2022-12-20T05:12:01.949Z,3.58
2022-12-20T05:13:19.495Z,4.57
2022-12-20T05:13:50.459Z,3.75
2022-12-20T05:14:12.177Z,2.67
2022-12-20T05:14:33.831Z,2.83
2022-12-20T05:14:55.509Z,8.52
2022-12-20T05:15:17.239Z,2.53
2022-12-20T05:15:39.033Z,1.80
2022-12-20T05:16:01.585Z,2.35
2022-12-20T05:16:23.330Z,3.55
2022-12-20T05:16:45.278Z,4.13
2022-12-20T05:17:07.004Z,6.82
2022-12-20T05:17:28.651Z,6.65
2022-12-20T05:17:50.661Z,2.80
2022-12-20T05:18:12.434Z,3.78
2022-12-20T05:18:34.367Z,8.05
2022-12-20T05:18:56.060Z,3.47
2022-12-20T05:19:17.905Z,3.00
2022-12-20T05:19:39.595Z,4.35
2022-12-20T05:20:01.326Z,3.80